createdAt,value
2019-01-03T00:18:19.560Z,103178.80
2019-01-03T00:23:57.070Z,103169.55
2019-01-03T00:30:31.527Z,103168.31
2019-01-03T01:02:05.811Z,103181.08
2019-01-03T02:58:23.743Z,103164.59
2019-01-03T04:14:24.747Z,103157.71
2019-01-03T04:51:57.501Z,103138.39
2019-01-03T05:28:39.738Z,103117.84
2019-01-03T05:35:11.927Z,103120.47
2019-01-03T08:48:48.559Z,103253.36
2019-01-03T08:54:32.670Z,103250.64
2019-01-03T10:03:16.867Z,103272.38
2019-01-03T10:42:00.527Z,103268.51
2019-01-03T11:18:41.332Z,103297.58
2019-01-03T11:23:43.711Z,103268.49
2019-01-03T11:28:46.375Z,103273.27
2019-01-03T11:33:48.785Z,103256.15
2019-01-03T11:38:51.222Z,103258.80
2019-01-03T11:43:54.321Z,103257.52
2019-01-03T11:48:56.954Z,103250.06
2019-01-03T11:53:59.086Z,103248.95
2019-01-03T11:59:01.040Z,103251.59
2019-01-03T12:04:03.573Z,103247.77
2019-01-03T12:09:06.762Z,103255.21
2019-01-03T12:14:08.885Z,103241.67
2019-01-03T12:19:11.348Z,103235.05
2019-01-03T12:24:14.365Z,103235.39
2019-01-03T12:29:16.860Z,103241.94
2019-01-03T12:34:19.528Z,103237.14
2019-01-03T12:39:22.489Z,103254.42
2019-01-03T12:44:25.062Z,103255.42
2019-01-03T12:49:27.742Z,103246.87
2019-01-03T12:54:30.660Z,103241.61
2019-01-03T12:59:33.431Z,103235.91
2019-01-03T13:04:36.182Z,103233.70
2019-01-03T13:09:38.995Z,103227.20
2019-01-03T13:14:41.553Z,103223.94
2019-01-03T13:19:43.640Z,103218.43
2019-01-03T13:24:46.265Z,103223.74
2019-01-03T13:29:48.997Z,103227.56
2019-01-03T13:34:52.015Z,103222.78
2019-01-03T13:39:54.943Z,103228.12
2019-01-03T13:44:57.335Z,103213.73
2019-01-03T13:50:00.239Z,103218.98
2019-01-03T13:55:03.713Z,103224.06
2019-01-03T14:00:09.192Z,103230.03
2019-01-03T14:05:12.034Z,103228.73
2019-01-03T14:10:14.924Z,103238.73
2019-01-03T14:15:17.746Z,103246.02
2019-01-03T14:20:20.568Z,103261.21
2019-01-03T14:25:23.217Z,103255.03
2019-01-03T14:30:29.276Z,103259.63
2019-01-03T14:35:36.599Z,103272.02
2019-01-03T14:40:39.215Z,103273.02
2019-01-03T14:45:41.934Z,103281.09
2019-01-03T14:50:44.631Z,103287.22
2019-01-03T14:55:47.376Z,103284.02
2019-01-03T15:00:50.193Z,103281.81
2019-01-03T15:05:53.087Z,103289.75
2019-01-03T15:10:56.107Z,103294.97
2019-01-03T15:15:58.867Z,103291.70
2019-01-03T15:21:01.589Z,103296.77
2019-01-03T15:26:04.700Z,103315.81
2019-01-03T15:31:07.496Z,103323.39
2019-01-03T15:36:10.096Z,103327.61
2019-01-03T15:41:12.803Z,103323.93
2019-01-03T15:46:15.282Z,103325.94
2019-01-03T15:51:18.065Z,103328.05
2019-01-03T15:56:21.004Z,103331.30
2019-01-03T16:01:24.105Z,103338.37
2019-01-03T16:06:27.002Z,103354.27
2019-01-03T16:11:29.492Z,103336.31
2019-01-03T16:16:31.891Z,103326.72
2019-01-03T16:21:34.233Z,103328.88
2019-01-03T16:26:36.692Z,103334.78
2019-01-03T16:31:39.479Z,103323.49
2019-01-03T16:36:42.310Z,103325.28
2019-01-03T16:41:44.953Z,103326.29
2019-01-03T16:46:47.634Z,103325.20
2019-01-03T16:51:50.237Z,103319.18
2019-01-03T16:56:53.052Z,103329.52
2019-01-03T17:01:55.874Z,103330.84
2019-01-03T17:06:58.137Z,103338.34
2019-01-03T17:12:00.502Z,103333.17
2019-01-03T17:17:02.886Z,103331.37
2019-01-03T17:22:05.393Z,103323.20
2019-01-03T17:27:08.051Z,103327.47
2019-01-03T17:32:11.060Z,103323.73
2019-01-03T17:37:13.917Z,103318.23
2019-01-03T17:42:16.942Z,103319.64
2019-01-03T17:47:19.841Z,103309.19
2019-01-03T17:52:22.630Z,103306.14
2019-01-03T17:57:25.029Z,103328.00
2019-01-03T18:02:27.305Z,103341.89
2019-01-03T18:07:30.414Z,103343.84
2019-01-03T18:12:33.310Z,103344.91
2019-01-03T18:17:36.208Z,103352.36
2019-01-03T18:22:39.235Z,103356.81
2019-01-03T18:27:44.240Z,103354.48
2019-01-03T18:32:46.936Z,103357.54
2019-01-03T18:37:49.384Z,103358.78
2019-01-03T18:42:51.985Z,103348.65
2019-01-03T18:47:54.677Z,103344.73
2019-01-03T18:52:57.464Z,103346.69
2019-01-03T18:58:00.550Z,103346.49
2019-01-03T19:03:03.501Z,103353.97
2019-01-03T19:08:06.071Z,103345.78
2019-01-03T19:13:08.766Z,103346.85
2019-01-03T19:18:12.103Z,103341.53
2019-01-03T19:23:15.088Z,103338.13
2019-01-03T19:28:17.896Z,103345.79
2019-01-03T19:33:21.063Z,103341.34
2019-01-03T19:38:23.806Z,103339.92
2019-01-03T19:43:27.757Z,103345.78
2019-01-03T19:48:33.079Z,103336.55
2019-01-03T19:53:38.240Z,103342.42
2019-01-03T19:58:44.520Z,103340.02
2019-01-03T20:03:50.371Z,103327.64
2019-01-03T20:08:54.702Z,103302.92
2019-01-03T20:13:58.803Z,103321.05
2019-01-03T20:19:01.771Z,103328.63
2019-01-03T20:24:05.527Z,103321.05
2019-01-03T20:29:09.171Z,103324.43
2019-01-03T20:34:13.855Z,103312.89
2019-01-03T20:39:17.638Z,103305.78
2019-01-03T20:44:22.868Z,103306.48
2019-01-03T20:49:26.652Z,103299.92
2019-01-03T20:54:33.571Z,103287.31
2019-01-03T20:59:38.452Z,103278.97
2019-01-03T21:04:44.282Z,103281.30
2019-01-03T21:09:49.317Z,103289.44
2019-01-03T21:14:56.074Z,103286.98
2019-01-03T21:20:02.317Z,103272.41
2019-01-03T21:25:07.937Z,103257.99
2019-01-03T21:30:14.367Z,103244.34
2019-01-03T21:35:18.882Z,103234.41
2019-01-03T21:40:23.223Z,103240.42
2019-01-03T21:45:27.141Z,103238.12
2019-01-03T21:50:31.278Z,103234.75
2019-01-03T21:55:34.963Z,103236.86
2019-01-03T22:00:37.546Z,103242.19
2019-01-03T22:05:40.735Z,103245.38
2019-01-03T22:10:44.036Z,103233.13
2019-01-03T22:15:46.932Z,103247.69
2019-01-03T22:20:50.168Z,103243.42
2019-01-03T22:25:52.999Z,103242.73
2019-01-03T22:30:56.157Z,103231.17
2019-01-03T22:35:59.543Z,103216.27
2019-01-03T22:41:02.466Z,103212.89
2019-01-03T22:46:05.080Z,103208.81
2019-01-03T22:51:07.993Z,103189.29
2019-01-03T22:56:10.769Z,103174.53
2019-01-03T23:01:13.561Z,103177.70
2019-01-03T23:06:16.654Z,103173.25
2019-01-03T23:11:19.564Z,103183.57
2019-01-03T23:16:22.776Z,103155.34
2019-01-03T23:21:25.800Z,103147.52
2019-01-03T23:26:28.430Z,103148.55
2019-01-03T23:31:30.987Z,103138.23
2019-01-03T23:36:33.676Z,103131.63
2019-01-03T23:41:36.623Z,103147.62
2019-01-03T23:46:39.188Z,103137.12
2019-01-03T23:51:42.269Z,103144.78
2019-01-03T23:56:45.061Z,103145.63
